sensor_id;sensor_type;location;lat;lon;timestamp;P1;durP1;ratioP1;P2;durP2;ratioP2
82950;SDS011;72737;53.332;6.514;2024-03-02T00:01:09;3.10;;;1.33;;
82950;SDS011;72737;53.332;6.514;2024-03-02T00:03:36;2.67;;;1.20;;
82950;SDS011;72737;53.332;6.514;2024-03-02T00:06:02;3.45;;;1.30;;
82950;SDS011;72737;53.332;6.514;2024-03-02T00:08:28;2.92;;;1.27;;
82950;SDS011;72737;53.332;6.514;2024-03-02T00:10:59;3.20;;;1.40;;
82950;SDS011;72737;53.332;6.514;2024-03-02T00:13:27;3.22;;;1.30;;
82950;SDS011;72737;53.332;6.514;2024-03-02T00:15:55;2.88;;;1.40;;
82950;SDS011;72737;53.332;6.514;2024-03-02T00:18:31;3.45;;;1.50;;
82950;SDS011;72737;53.332;6.514;2024-03-02T00:20:58;3.85;;;1.50;;
82950;SDS011;72737;53.332;6.514;2024-03-02T00:23:27;3.13;;;1.20;;
82950;SDS011;72737;53.332;6.514;2024-03-02T00:25:55;3.35;;;1.52;;
82950;SDS011;72737;53.332;6.514;2024-03-02T00:28:31;2.95;;;1.27;;
82950;SDS011;72737;53.332;6.514;2024-03-02T00:33:36;3.33;;;1.50;;
82950;SDS011;72737;53.332;6.514;2024-03-02T00:36:03;3.35;;;1.30;;
82950;SDS011;72737;53.332;6.514;2024-03-02T00:38:31;3.15;;;1.30;;
82950;SDS011;72737;53.332;6.514;2024-03-02T00:41:05;3.10;;;1.30;;
82950;SDS011;72737;53.332;6.514;2024-03-02T00:43:43;2.80;;;1.30;;
82950;SDS011;72737;53.332;6.514;2024-03-02T00:46:18;3.10;;;1.27;;
82950;SDS011;72737;53.332;6.514;2024-03-02T00:51:25;3.38;;;1.38;;
82950;SDS011;72737;53.332;6.514;2024-03-02T00:53:54;3.25;;;1.33;;
82950;SDS011;72737;53.332;6.514;2024-03-02T00:56:21;3.28;;;1.40;;
82950;SDS011;72737;53.332;6.514;2024-03-02T00:58:48;3.72;;;1.40;;
82950;SDS011;72737;53.332;6.514;2024-03-02T01:01:14;3.30;;;1.17;;
82950;SDS011;72737;53.332;6.514;2024-03-02T01:03:41;3.72;;;1.50;;
82950;SDS011;72737;53.332;6.514;2024-03-02T01:06:12;3.03;;;1.20;;
82950;SDS011;72737;53.332;6.514;2024-03-02T01:08:38;3.55;;;1.40;;
82950;SDS011;72737;53.332;6.514;2024-03-02T01:11:05;2.80;;;1.17;;
82950;SDS011;72737;53.332;6.514;2024-03-02T01:13:31;3.55;;;1.27;;
82950;SDS011;72737;53.332;6.514;2024-03-02T01:15:57;3.70;;;1.33;;
82950;SDS011;72737;53.332;6.514;2024-03-02T01:18:25;2.78;;;1.30;;
82950;SDS011;72737;53.332;6.514;2024-03-02T01:20:52;4.00;;;1.50;;
82950;SDS011;72737;53.332;6.514;2024-03-02T01:23:26;3.35;;;1.40;;
82950;SDS011;72737;53.332;6.514;2024-03-02T01:25:52;3.83;;;1.40;;
82950;SDS011;72737;53.332;6.514;2024-03-02T01:28:18;3.20;;;1.13;;
82950;SDS011;72737;53.332;6.514;2024-03-02T01:30:45;3.15;;;1.30;;
82950;SDS011;72737;53.332;6.514;2024-03-02T01:33:11;3.47;;;1.60;;
82950;SDS011;72737;53.332;6.514;2024-03-02T01:35:36;3.53;;;1.42;;
82950;SDS011;72737;53.332;6.514;2024-03-02T01:38:03;2.92;;;1.20;;
82950;SDS011;72737;53.332;6.514;2024-03-02T01:43:17;3.38;;;1.40;;
82950;SDS011;72737;53.332;6.514;2024-03-02T01:45:43;3.47;;;1.40;;
82950;SDS011;72737;53.332;6.514;2024-03-02T01:48:09;3.33;;;1.30;;
82950;SDS011;72737;53.332;6.514;2024-03-02T01:50:35;2.72;;;1.20;;
82950;SDS011;72737;53.332;6.514;2024-03-02T01:53:03;3.15;;;1.20;;
82950;SDS011;72737;53.332;6.514;2024-03-02T01:55:28;2.35;;;1.02;;
82950;SDS011;72737;53.332;6.514;2024-03-02T01:57:56;3.40;;;1.20;;
82950;SDS011;72737;53.332;6.514;2024-03-02T02:00:22;3.17;;;1.30;;
82950;SDS011;72737;53.332;6.514;2024-03-02T02:02:51;2.95;;;1.38;;
82950;SDS011;72737;53.332;6.514;2024-03-02T02:05:17;2.75;;;1.27;;
82950;SDS011;72737;53.332;6.514;2024-03-02T02:07:43;3.13;;;1.50;;
82950;SDS011;72737;53.332;6.514;2024-03-02T02:10:09;3.30;;;1.35;;
82950;SDS011;72737;53.332;6.514;2024-03-02T02:12:35;3.47;;;1.30;;
82950;SDS011;72737;53.332;6.514;2024-03-02T02:15:02;4.60;;;1.48;;
82950;SDS011;72737;53.332;6.514;2024-03-02T02:17:28;3.22;;;1.40;;
82950;SDS011;72737;53.332;6.514;2024-03-02T02:19:53;3.05;;;1.20;;
82950;SDS011;72737;53.332;6.514;2024-03-02T02:22:18;3.10;;;1.33;;
82950;SDS011;72737;53.332;6.514;2024-03-02T02:24:44;3.33;;;1.38;;
82950;SDS011;72737;53.332;6.514;2024-03-02T02:27:10;2.90;;;1.20;;
82950;SDS011;72737;53.332;6.514;2024-03-02T02:29:35;3.00;;;1.38;;
82950;SDS011;72737;53.332;6.514;2024-03-02T02:32:02;3.13;;;1.27;;
82950;SDS011;72737;53.332;6.514;2024-03-02T02:34:28;3.03;;;1.13;;
82950;SDS011;72737;53.332;6.514;2024-03-02T02:36:53;2.75;;;1.20;;
82950;SDS011;72737;53.332;6.514;2024-03-02T02:39:20;3.15;;;1.20;;
82950;SDS011;72737;53.332;6.514;2024-03-02T02:41:47;3.45;;;1.50;;
82950;SDS011;72737;53.332;6.514;2024-03-02T02:44:13;3.03;;;1.23;;
82950;SDS011;72737;53.332;6.514;2024-03-02T02:46:40;3.05;;;1.15;;
82950;SDS011;72737;53.332;6.514;2024-03-02T02:49:08;3.70;;;1.40;;
82950;SDS011;72737;53.332;6.514;2024-03-02T02:51:33;3.17;;;1.30;;
82950;SDS011;72737;53.332;6.514;2024-03-02T02:53:58;3.92;;;1.40;;
82950;SDS011;72737;53.332;6.514;2024-03-02T02:56:25;3.90;;;1.65;;
82950;SDS011;72737;53.332;6.514;2024-03-02T02:58:50;3.08;;;1.20;;
82950;SDS011;72737;53.332;6.514;2024-03-02T03:01:17;3.90;;;1.50;;
82950;SDS011;72737;53.332;6.514;2024-03-02T03:03:45;2.90;;;1.40;;
82950;SDS011;72737;53.332;6.514;2024-03-02T03:06:17;2.78;;;1.30;;
82950;SDS011;72737;53.332;6.514;2024-03-02T03:08:42;3.20;;;1.55;;
82950;SDS011;72737;53.332;6.514;2024-03-02T03:11:08;3.58;;;1.48;;
82950;SDS011;72737;53.332;6.514;2024-03-02T03:13:33;3.38;;;1.40;;
82950;SDS011;72737;53.332;6.514;2024-03-02T03:15:59;3.55;;;1.33;;
82950;SDS011;72737;53.332;6.514;2024-03-02T03:18:25;3.17;;;1.35;;
82950;SDS011;72737;53.332;6.514;2024-03-02T03:20:50;2.80;;;1.20;;
82950;SDS011;72737;53.332;6.514;2024-03-02T03:23:16;3.22;;;1.40;;
82950;SDS011;72737;53.332;6.514;2024-03-02T03:25:43;3.60;;;1.30;;
82950;SDS011;72737;53.332;6.514;2024-03-02T03:28:09;4.13;;;1.50;;
82950;SDS011;72737;53.332;6.514;2024-03-02T03:30:36;3.92;;;1.50;;
82950;SDS011;72737;53.332;6.514;2024-03-02T03:33:02;2.70;;;1.23;;
82950;SDS011;72737;53.332;6.514;2024-03-02T03:35:29;2.85;;;1.20;;
82950;SDS011;72737;53.332;6.514;2024-03-02T03:37:54;2.72;;;1.20;;
82950;SDS011;72737;53.332;6.514;2024-03-02T03:40:20;3.15;;;1.42;;
82950;SDS011;72737;53.332;6.514;2024-03-02T03:42:45;2.33;;;1.20;;
82950;SDS011;72737;53.332;6.514;2024-03-02T03:45:10;3.17;;;1.30;;
82950;SDS011;72737;53.332;6.514;2024-03-02T03:47:36;2.88;;;1.23;;
82950;SDS011;72737;53.332;6.514;2024-03-02T03:50:04;3.78;;;1.40;;
82950;SDS011;72737;53.332;6.514;2024-03-02T03:52:32;3.05;;;1.30;;
82950;SDS011;72737;53.332;6.514;2024-03-02T03:54:58;2.95;;;1.10;;
82950;SDS011;72737;53.332;6.514;2024-03-02T03:57:24;3.42;;;1.23;;
82950;SDS011;72737;53.332;6.514;2024-03-02T03:59:49;2.95;;;1.17;;
82950;SDS011;72737;53.332;6.514;2024-03-02T04:02:15;3.85;;;1.35;;
82950;SDS011;72737;53.332;6.514;2024-03-02T04:04:41;3.08;;;1.33;;
82950;SDS011;72737;53.332;6.514;2024-03-02T04:07:06;2.92;;;1.33;;
82950;SDS011;72737;53.332;6.514;2024-03-02T04:09:32;3.22;;;1.27;;
82950;SDS011;72737;53.332;6.514;2024-03-02T04:11:58;3.22;;;1.20;;
82950;SDS011;72737;53.332;6.514;2024-03-02T04:14:23;3.70;;;1.58;;
82950;SDS011;72737;53.332;6.514;2024-03-02T04:16:49;3.05;;;1.33;;
82950;SDS011;72737;53.332;6.514;2024-03-02T04:19:14;3.10;;;1.30;;
82950;SDS011;72737;53.332;6.514;2024-03-02T04:21:40;2.92;;;1.30;;
82950;SDS011;72737;53.332;6.514;2024-03-02T04:24:05;2.00;;;1.10;;
82950;SDS011;72737;53.332;6.514;2024-03-02T04:26:30;2.92;;;1.23;;
82950;SDS011;72737;53.332;6.514;2024-03-02T04:28:56;3.95;;;1.27;;
82950;SDS011;72737;53.332;6.514;2024-03-02T04:31:21;3.28;;;1.23;;
82950;SDS011;72737;53.332;6.514;2024-03-02T04:33:47;2.50;;;1.13;;
82950;SDS011;72737;53.332;6.514;2024-03-02T04:36:13;2.30;;;1.05;;
82950;SDS011;72737;53.332;6.514;2024-03-02T04:38:39;2.65;;;1.10;;
82950;SDS011;72737;53.332;6.514;2024-03-02T04:41:04;3.50;;;1.40;;
82950;SDS011;72737;53.332;6.514;2024-03-02T04:43:33;3.03;;;1.25;;
82950;SDS011;72737;53.332;6.514;2024-03-02T04:45:59;2.30;;;1.05;;
82950;SDS011;72737;53.332;6.514;2024-03-02T04:48:24;3.13;;;1.25;;
82950;SDS011;72737;53.332;6.514;2024-03-02T04:50:50;2.85;;;1.30;;
82950;SDS011;72737;53.332;6.514;2024-03-02T04:53:16;3.42;;;1.33;;
82950;SDS011;72737;53.332;6.514;2024-03-02T04:55:41;3.15;;;1.30;;
82950;SDS011;72737;53.332;6.514;2024-03-02T04:58:07;2.97;;;1.30;;
82950;SDS011;72737;53.332;6.514;2024-03-02T05:00:33;3.55;;;1.40;;
82950;SDS011;72737;53.332;6.514;2024-03-02T05:02:59;2.75;;;1.10;;
82950;SDS011;72737;53.332;6.514;2024-03-02T05:05:24;3.65;;;1.35;;
82950;SDS011;72737;53.332;6.514;2024-03-02T05:07:50;2.95;;;1.08;;
82950;SDS011;72737;53.332;6.514;2024-03-02T05:10:16;3.65;;;1.20;;
82950;SDS011;72737;53.332;6.514;2024-03-02T05:12:41;3.55;;;1.40;;
82950;SDS011;72737;53.332;6.514;2024-03-02T05:15:10;3.85;;;1.33;;
82950;SDS011;72737;53.332;6.514;2024-03-02T05:17:39;2.63;;;1.10;;
82950;SDS011;72737;53.332;6.514;2024-03-02T05:20:06;2.22;;;1.02;;
82950;SDS011;72737;53.332;6.514;2024-03-02T05:22:33;3.08;;;1.30;;
82950;SDS011;72737;53.332;6.514;2024-03-02T05:24:59;2.70;;;1.17;;
82950;SDS011;72737;53.332;6.514;2024-03-02T05:27:26;2.72;;;1.08;;
82950;SDS011;72737;53.332;6.514;2024-03-02T05:29:51;2.45;;;1.20;;
82950;SDS011;72737;53.332;6.514;2024-03-02T05:32:17;2.20;;;1.10;;
82950;SDS011;72737;53.332;6.514;2024-03-02T05:34:42;3.55;;;1.25;;
82950;SDS011;72737;53.332;6.514;2024-03-02T05:37:08;3.15;;;1.17;;
82950;SDS011;72737;53.332;6.514;2024-03-02T05:39:33;2.55;;;1.20;;
82950;SDS011;72737;53.332;6.514;2024-03-02T05:41:59;2.40;;;1.05;;
82950;SDS011;72737;53.332;6.514;2024-03-02T05:44:24;1.80;;;1.00;;
82950;SDS011;72737;53.332;6.514;2024-03-02T05:46:50;2.83;;;1.15;;
82950;SDS011;72737;53.332;6.514;2024-03-02T05:49:15;2.50;;;1.20;;
82950;SDS011;72737;53.332;6.514;2024-03-02T05:51:41;2.25;;;1.10;;
82950;SDS011;72737;53.332;6.514;2024-03-02T05:54:06;2.90;;;1.10;;
82950;SDS011;72737;53.332;6.514;2024-03-02T05:56:33;1.75;;;1.00;;
82950;SDS011;72737;53.332;6.514;2024-03-02T05:58:58;3.28;;;1.17;;
82950;SDS011;72737;53.332;6.514;2024-03-02T06:01:40;2.78;;;1.35;;
82950;SDS011;72737;53.332;6.514;2024-03-02T06:04:08;3.28;;;1.10;;
82950;SDS011;72737;53.332;6.514;2024-03-02T06:06:35;3.13;;;1.20;;
82950;SDS011;72737;53.332;6.514;2024-03-02T06:09:03;3.00;;;1.17;;
82950;SDS011;72737;53.332;6.514;2024-03-02T06:11:39;3.63;;;1.20;;
82950;SDS011;72737;53.332;6.514;2024-03-02T06:14:06;2.78;;;1.00;;
82950;SDS011;72737;53.332;6.514;2024-03-02T06:16:34;3.75;;;1.40;;
82950;SDS011;72737;53.332;6.514;2024-03-02T06:19:00;3.28;;;1.20;;
82950;SDS011;72737;53.332;6.514;2024-03-02T06:21:27;2.67;;;1.00;;
82950;SDS011;72737;53.332;6.514;2024-03-02T06:23:52;2.95;;;1.17;;
82950;SDS011;72737;53.332;6.514;2024-03-02T06:26:18;2.58;;;1.10;;
82950;SDS011;72737;53.332;6.514;2024-03-02T06:28:44;2.33;;;1.13;;
82950;SDS011;72737;53.332;6.514;2024-03-02T06:31:11;2.53;;;1.10;;
82950;SDS011;72737;53.332;6.514;2024-03-02T06:33:36;2.85;;;1.10;;
82950;SDS011;72737;53.332;6.514;2024-03-02T06:36:02;2.00;;;1.10;;
82950;SDS011;72737;53.332;6.514;2024-03-02T06:38:28;2.10;;;1.00;;
82950;SDS011;72737;53.332;6.514;2024-03-02T06:40:53;2.22;;;1.10;;
82950;SDS011;72737;53.332;6.514;2024-03-02T06:43:20;2.67;;;1.10;;
82950;SDS011;72737;53.332;6.514;2024-03-02T06:45:49;2.20;;;1.08;;
82950;SDS011;72737;53.332;6.514;2024-03-02T06:50:45;2.55;;;1.30;;
82950;SDS011;72737;53.332;6.514;2024-03-02T06:53:11;2.22;;;1.00;;
82950;SDS011;72737;53.332;6.514;2024-03-02T06:55:37;1.80;;;1.00;;
82950;SDS011;72737;53.332;6.514;2024-03-02T06:58:02;2.28;;;1.00;;
82950;SDS011;72737;53.332;6.514;2024-03-02T07:00:28;2.83;;;1.00;;
82950;SDS011;72737;53.332;6.514;2024-03-02T07:02:54;2.75;;;1.00;;
82950;SDS011;72737;53.332;6.514;2024-03-02T07:05:19;2.78;;;1.23;;
82950;SDS011;72737;53.332;6.514;2024-03-02T07:07:46;3.17;;;1.20;;
82950;SDS011;72737;53.332;6.514;2024-03-02T07:10:11;2.28;;;1.02;;
82950;SDS011;72737;53.332;6.514;2024-03-02T07:12:37;3.10;;;1.00;;
82950;SDS011;72737;53.332;6.514;2024-03-02T07:15:02;2.88;;;1.10;;
82950;SDS011;72737;53.332;6.514;2024-03-02T07:17:28;2.53;;;1.00;;
82950;SDS011;72737;53.332;6.514;2024-03-02T07:19:57;2.13;;;1.00;;
82950;SDS011;72737;53.332;6.514;2024-03-02T07:22:23;2.78;;;1.10;;
82950;SDS011;72737;53.332;6.514;2024-03-02T07:24:50;2.05;;;0.95;;
82950;SDS011;72737;53.332;6.514;2024-03-02T07:27:16;2.78;;;1.13;;
82950;SDS011;72737;53.332;6.514;2024-03-02T07:29:42;2.90;;;1.25;;
82950;SDS011;72737;53.332;6.514;2024-03-02T07:32:08;1.95;;;0.95;;
82950;SDS011;72737;53.332;6.514;2024-03-02T07:34:36;2.22;;;0.98;;
82950;SDS011;72737;53.332;6.514;2024-03-02T07:37:05;2.10;;;1.00;;
82950;SDS011;72737;53.332;6.514;2024-03-02T07:39:31;3.28;;;1.23;;
82950;SDS011;72737;53.332;6.514;2024-03-02T07:41:56;3.08;;;1.20;;
82950;SDS011;72737;53.332;6.514;2024-03-02T07:44:22;2.30;;;1.10;;
82950;SDS011;72737;53.332;6.514;2024-03-02T07:46:48;2.85;;;1.20;;
82950;SDS011;72737;53.332;6.514;2024-03-02T07:49:17;2.03;;;0.90;;
82950;SDS011;72737;53.332;6.514;2024-03-02T07:51:44;2.08;;;1.10;;
82950;SDS011;72737;53.332;6.514;2024-03-02T07:54:09;2.85;;;1.10;;
82950;SDS011;72737;53.332;6.514;2024-03-02T07:56:35;2.13;;;0.80;;
82950;SDS011;72737;53.332;6.514;2024-03-02T07:59:02;2.40;;;1.00;;
82950;SDS011;72737;53.332;6.514;2024-03-02T08:01:31;2.00;;;0.95;;
82950;SDS011;72737;53.332;6.514;2024-03-02T08:03:57;3.03;;;1.10;;
82950;SDS011;72737;53.332;6.514;2024-03-02T08:06:25;2.67;;;1.10;;
82950;SDS011;72737;53.332;6.514;2024-03-02T08:08:59;2.42;;;1.05;;
82950;SDS011;72737;53.332;6.514;2024-03-02T08:11:26;1.70;;;0.93;;
82950;SDS011;72737;53.332;6.514;2024-03-02T08:13:52;1.55;;;0.88;;
82950;SDS011;72737;53.332;6.514;2024-03-02T08:16:19;2.72;;;1.10;;
82950;SDS011;72737;53.332;6.514;2024-03-02T08:18:47;2.35;;;1.00;;
82950;SDS011;72737;53.332;6.514;2024-03-02T08:21:14;2.30;;;1.08;;
82950;SDS011;72737;53.332;6.514;2024-03-02T08:23:39;2.78;;;1.00;;
82950;SDS011;72737;53.332;6.514;2024-03-02T08:26:07;2.85;;;1.10;;
82950;SDS011;72737;53.332;6.514;2024-03-02T08:28:32;2.33;;;1.00;;
82950;SDS011;72737;53.332;6.514;2024-03-02T08:30:58;2.53;;;1.10;;
82950;SDS011;72737;53.332;6.514;2024-03-02T08:33:24;2.20;;;1.00;;
82950;SDS011;72737;53.332;6.514;2024-03-02T08:35:49;1.05;;;0.80;;
82950;SDS011;72737;53.332;6.514;2024-03-02T08:38:16;2.58;;;1.10;;
82950;SDS011;72737;53.332;6.514;2024-03-02T08:40:42;1.95;;;0.90;;
82950;SDS011;72737;53.332;6.514;2024-03-02T08:43:07;2.10;;;0.80;;
82950;SDS011;72737;53.332;6.514;2024-03-02T08:45:33;2.72;;;1.10;;
82950;SDS011;72737;53.332;6.514;2024-03-02T08:47:59;2.42;;;1.10;;
82950;SDS011;72737;53.332;6.514;2024-03-02T08:50:26;2.33;;;0.95;;
82950;SDS011;72737;53.332;6.514;2024-03-02T08:52:51;2.67;;;1.10;;
82950;SDS011;72737;53.332;6.514;2024-03-02T08:55:17;2.47;;;1.00;;
82950;SDS011;72737;53.332;6.514;2024-03-02T08:57:43;1.90;;;0.82;;
82950;SDS011;72737;53.332;6.514;2024-03-02T09:00:09;2.08;;;1.00;;
82950;SDS011;72737;53.332;6.514;2024-03-02T09:02:35;1.63;;;0.90;;
82950;SDS011;72737;53.332;6.514;2024-03-02T09:05:00;3.08;;;1.00;;
82950;SDS011;72737;53.332;6.514;2024-03-02T09:07:26;2.03;;;0.98;;
82950;SDS011;72737;53.332;6.514;2024-03-02T09:09:52;2.42;;;1.00;;
82950;SDS011;72737;53.332;6.514;2024-03-02T09:12:17;2.58;;;0.90;;
82950;SDS011;72737;53.332;6.514;2024-03-02T09:14:44;2.25;;;1.00;;
82950;SDS011;72737;53.332;6.514;2024-03-02T09:17:09;2.33;;;0.90;;
82950;SDS011;72737;53.332;6.514;2024-03-02T09:19:36;1.77;;;0.80;;
82950;SDS011;72737;53.332;6.514;2024-03-02T09:22:02;2.00;;;0.90;;
82950;SDS011;72737;53.332;6.514;2024-03-02T09:24:28;1.77;;;0.82;;
82950;SDS011;72737;53.332;6.514;2024-03-02T09:26:54;2.25;;;0.95;;
82950;SDS011;72737;53.332;6.514;2024-03-02T09:29:19;2.25;;;0.90;;
82950;SDS011;72737;53.332;6.514;2024-03-02T09:31:45;1.73;;;0.90;;
82950;SDS011;72737;53.332;6.514;2024-03-02T09:34:12;1.30;;;0.70;;
82950;SDS011;72737;53.332;6.514;2024-03-02T09:36:39;2.53;;;0.90;;
82950;SDS011;72737;53.332;6.514;2024-03-02T09:39:04;3.50;;;1.00;;
82950;SDS011;72737;53.332;6.514;2024-03-02T09:41:30;1.52;;;0.80;;
82950;SDS011;72737;53.332;6.514;2024-03-02T09:43:55;1.40;;;0.90;;
82950;SDS011;72737;53.332;6.514;2024-03-02T09:46:22;2.17;;;0.80;;
82950;SDS011;72737;53.332;6.514;2024-03-02T09:48:48;1.58;;;0.90;;
82950;SDS011;72737;53.332;6.514;2024-03-02T09:51:14;1.33;;;0.80;;
82950;SDS011;72737;53.332;6.514;2024-03-02T09:53:41;2.22;;;0.90;;
82950;SDS011;72737;53.332;6.514;2024-03-02T09:56:07;2.60;;;0.93;;
82950;SDS011;72737;53.332;6.514;2024-03-02T09:58:33;2.15;;;1.00;;
82950;SDS011;72737;53.332;6.514;2024-03-02T10:00:58;2.45;;;0.85;;
82950;SDS011;72737;53.332;6.514;2024-03-02T10:03:24;2.20;;;0.90;;
82950;SDS011;72737;53.332;6.514;2024-03-02T10:05:49;2.10;;;0.90;;
82950;SDS011;72737;53.332;6.514;2024-03-02T10:08:15;2.88;;;0.98;;
82950;SDS011;72737;53.332;6.514;2024-03-02T10:10:41;2.05;;;0.90;;
82950;SDS011;72737;53.332;6.514;2024-03-02T10:13:11;1.80;;;0.80;;
82950;SDS011;72737;53.332;6.514;2024-03-02T10:15:38;1.70;;;0.82;;
82950;SDS011;72737;53.332;6.514;2024-03-02T10:18:10;1.75;;;0.80;;
82950;SDS011;72737;53.332;6.514;2024-03-02T10:20:42;1.60;;;0.77;;
82950;SDS011;72737;53.332;6.514;2024-03-02T10:23:11;1.98;;;1.02;;
82950;SDS011;72737;53.332;6.514;2024-03-02T10:25:43;1.77;;;0.80;;
82950;SDS011;72737;53.332;6.514;2024-03-02T10:28:10;1.48;;;0.75;;
82950;SDS011;72737;53.332;6.514;2024-03-02T10:30:35;1.88;;;0.80;;
82950;SDS011;72737;53.332;6.514;2024-03-02T10:33:02;2.13;;;0.80;;
82950;SDS011;72737;53.332;6.514;2024-03-02T10:35:28;2.65;;;0.93;;
82950;SDS011;72737;53.332;6.514;2024-03-02T10:37:58;1.70;;;0.80;;
82950;SDS011;72737;53.332;6.514;2024-03-02T10:40:26;1.63;;;0.70;;
82950;SDS011;72737;53.332;6.514;2024-03-02T10:42:52;1.55;;;0.80;;
82950;SDS011;72737;53.332;6.514;2024-03-02T10:45:19;1.33;;;0.80;;
82950;SDS011;72737;53.332;6.514;2024-03-02T10:47:47;1.40;;;0.80;;
82950;SDS011;72737;53.332;6.514;2024-03-02T10:50:13;2.42;;;0.70;;
82950;SDS011;72737;53.332;6.514;2024-03-02T10:52:38;1.75;;;0.80;;
82950;SDS011;72737;53.332;6.514;2024-03-02T10:55:05;2.03;;;0.80;;
82950;SDS011;72737;53.332;6.514;2024-03-02T10:57:42;1.67;;;0.73;;
82950;SDS011;72737;53.332;6.514;2024-03-02T11:00:16;1.75;;;0.75;;
82950;SDS011;72737;53.332;6.514;2024-03-02T11:02:46;1.23;;;0.80;;
82950;SDS011;72737;53.332;6.514;2024-03-02T11:07:56;1.85;;;0.80;;
82950;SDS011;72737;53.332;6.514;2024-03-02T11:10:45;1.85;;;0.80;;
82950;SDS011;72737;53.332;6.514;2024-03-02T11:13:22;1.10;;;0.57;;
82950;SDS011;72737;53.332;6.514;2024-03-02T11:15:50;1.70;;;0.80;;
82950;SDS011;72737;53.332;6.514;2024-03-02T11:18:20;1.08;;;0.60;;
82950;SDS011;72737;53.332;6.514;2024-03-02T11:20:46;1.65;;;0.80;;
82950;SDS011;72737;53.332;6.514;2024-03-02T11:23:13;2.10;;;0.73;;
82950;SDS011;72737;53.332;6.514;2024-03-02T11:25:39;1.52;;;0.63;;
82950;SDS011;72737;53.332;6.514;2024-03-02T11:28:05;1.63;;;0.77;;
82950;SDS011;72737;53.332;6.514;2024-03-02T11:33:01;1.20;;;0.67;;
82950;SDS011;72737;53.332;6.514;2024-03-02T11:35:51;1.17;;;0.65;;
82950;SDS011;72737;53.332;6.514;2024-03-02T11:38:17;2.35;;;0.75;;
82950;SDS011;72737;53.332;6.514;2024-03-02T11:40:43;1.83;;;0.70;;
82950;SDS011;72737;53.332;6.514;2024-03-02T11:43:09;1.48;;;0.60;;
82950;SDS011;72737;53.332;6.514;2024-03-02T11:45:36;1.25;;;0.68;;
82950;SDS011;72737;53.332;6.514;2024-03-02T11:48:06;1.52;;;0.68;;
82950;SDS011;72737;53.332;6.514;2024-03-02T11:50:42;0.82;;;0.60;;
82950;SDS011;72737;53.332;6.514;2024-03-02T11:53:12;1.20;;;0.57;;
82950;SDS011;72737;53.332;6.514;2024-03-02T11:55:39;2.17;;;0.70;;
82950;SDS011;72737;53.332;6.514;2024-03-02T11:58:06;1.08;;;0.60;;
82950;SDS011;72737;53.332;6.514;2024-03-02T12:00:32;1.13;;;0.70;;
82950;SDS011;72737;53.332;6.514;2024-03-02T12:03:01;1.85;;;0.73;;
82950;SDS011;72737;53.332;6.514;2024-03-02T12:05:28;0.85;;;0.55;;
82950;SDS011;72737;53.332;6.514;2024-03-02T12:07:56;0.80;;;0.57;;
82950;SDS011;72737;53.332;6.514;2024-03-02T12:10:22;1.90;;;0.63;;
82950;SDS011;72737;53.332;6.514;2024-03-02T12:12:54;1.73;;;0.60;;
82950;SDS011;72737;53.332;6.514;2024-03-02T12:15:32;0.80;;;0.60;;
82950;SDS011;72737;53.332;6.514;2024-03-02T12:17:59;1.60;;;0.70;;
82950;SDS011;72737;53.332;6.514;2024-03-02T12:22:54;0.90;;;0.60;;
82950;SDS011;72737;53.332;6.514;2024-03-02T12:27:47;1.83;;;0.60;;
82950;SDS011;72737;53.332;6.514;2024-03-02T12:30:18;1.10;;;0.60;;
82950;SDS011;72737;53.332;6.514;2024-03-02T12:32:44;1.10;;;0.60;;
82950;SDS011;72737;53.332;6.514;2024-03-02T12:35:12;0.95;;;0.50;;
82950;SDS011;72737;53.332;6.514;2024-03-02T12:37:48;2.45;;;0.70;;
82950;SDS011;72737;53.332;6.514;2024-03-02T12:40:16;2.17;;;0.60;;
82950;SDS011;72737;53.332;6.514;2024-03-02T12:42:44;1.15;;;0.70;;
82950;SDS011;72737;53.332;6.514;2024-03-02T12:45:11;1.17;;;0.47;;
82950;SDS011;72737;53.332;6.514;2024-03-02T12:47:38;1.38;;;0.50;;
82950;SDS011;72737;53.332;6.514;2024-03-02T12:50:05;2.88;;;0.70;;
82950;SDS011;72737;53.332;6.514;2024-03-02T12:52:32;1.80;;;0.60;;
82950;SDS011;72737;53.332;6.514;2024-03-02T12:54:59;0.98;;;0.55;;
82950;SDS011;72737;53.332;6.514;2024-03-02T12:57:26;0.88;;;0.57;;
82950;SDS011;72737;53.332;6.514;2024-03-02T12:59:54;1.40;;;0.50;;
82950;SDS011;72737;53.332;6.514;2024-03-02T13:02:26;1.38;;;0.70;;
82950;SDS011;72737;53.332;6.514;2024-03-02T13:04:53;1.45;;;0.57;;
82950;SDS011;72737;53.332;6.514;2024-03-02T13:07:20;1.48;;;0.63;;
82950;SDS011;72737;53.332;6.514;2024-03-02T13:09:47;1.92;;;0.65;;
82950;SDS011;72737;53.332;6.514;2024-03-02T13:12:18;1.23;;;0.50;;
82950;SDS011;72737;53.332;6.514;2024-03-02T13:14:44;0.70;;;0.45;;
82950;SDS011;72737;53.332;6.514;2024-03-02T13:17:13;1.90;;;0.60;;
82950;SDS011;72737;53.332;6.514;2024-03-02T13:19:50;2.03;;;0.73;;
82950;SDS011;72737;53.332;6.514;2024-03-02T13:22:17;1.25;;;0.63;;
82950;SDS011;72737;53.332;6.514;2024-03-02T13:24:43;1.42;;;0.50;;
82950;SDS011;72737;53.332;6.514;2024-03-02T13:27:08;0.50;;;0.40;;
82950;SDS011;72737;53.332;6.514;2024-03-02T13:29:33;1.77;;;0.57;;
82950;SDS011;72737;53.332;6.514;2024-03-02T13:31:59;2.65;;;0.70;;
82950;SDS011;72737;53.332;6.514;2024-03-02T13:34:24;0.98;;;0.57;;
82950;SDS011;72737;53.332;6.514;2024-03-02T13:36:50;2.25;;;0.73;;
82950;SDS011;72737;53.332;6.514;2024-03-02T13:39:15;0.98;;;0.70;;
82950;SDS011;72737;53.332;6.514;2024-03-02T13:41:41;1.45;;;0.60;;
82950;SDS011;72737;53.332;6.514;2024-03-02T13:44:07;1.02;;;0.47;;
82950;SDS011;72737;53.332;6.514;2024-03-02T13:46:33;1.30;;;0.70;;
82950;SDS011;72737;53.332;6.514;2024-03-02T13:48:59;1.38;;;0.55;;
82950;SDS011;72737;53.332;6.514;2024-03-02T13:51:24;2.25;;;0.70;;
82950;SDS011;72737;53.332;6.514;2024-03-02T13:53:50;1.08;;;0.70;;
82950;SDS011;72737;53.332;6.514;2024-03-02T13:56:17;1.58;;;0.50;;
82950;SDS011;72737;53.332;6.514;2024-03-02T13:58:43;1.40;;;0.70;;
82950;SDS011;72737;53.332;6.514;2024-03-02T14:01:11;2.25;;;0.80;;
82950;SDS011;72737;53.332;6.514;2024-03-02T14:03:36;1.65;;;0.52;;
82950;SDS011;72737;53.332;6.514;2024-03-02T14:06:04;2.55;;;0.73;;
82950;SDS011;72737;53.332;6.514;2024-03-02T14:08:29;1.35;;;0.63;;
82950;SDS011;72737;53.332;6.514;2024-03-02T14:10:55;1.90;;;0.70;;
82950;SDS011;72737;53.332;6.514;2024-03-02T14:13:23;1.63;;;0.60;;
82950;SDS011;72737;53.332;6.514;2024-03-02T14:15:49;1.33;;;0.77;;
82950;SDS011;72737;53.332;6.514;2024-03-02T14:18:14;1.90;;;0.70;;
82950;SDS011;72737;53.332;6.514;2024-03-02T14:20:40;0.88;;;0.50;;
82950;SDS011;72737;53.332;6.514;2024-03-02T14:23:07;2.08;;;0.88;;
82950;SDS011;72737;53.332;6.514;2024-03-02T14:25:32;1.73;;;0.70;;
82950;SDS011;72737;53.332;6.514;2024-03-02T14:27:59;1.52;;;0.80;;
82950;SDS011;72737;53.332;6.514;2024-03-02T14:30:24;1.88;;;0.75;;
82950;SDS011;72737;53.332;6.514;2024-03-02T14:32:50;1.63;;;0.70;;
82950;SDS011;72737;53.332;6.514;2024-03-02T14:35:17;1.23;;;0.68;;
82950;SDS011;72737;53.332;6.514;2024-03-02T14:37:43;1.50;;;0.73;;
82950;SDS011;72737;53.332;6.514;2024-03-02T14:40:09;2.00;;;0.90;;
82950;SDS011;72737;53.332;6.514;2024-03-02T14:45:02;3.05;;;0.90;;
82950;SDS011;72737;53.332;6.514;2024-03-02T14:47:29;1.95;;;0.93;;
82950;SDS011;72737;53.332;6.514;2024-03-02T14:49:57;1.92;;;0.80;;
82950;SDS011;72737;53.332;6.514;2024-03-02T14:52:23;1.67;;;0.80;;
82950;SDS011;72737;53.332;6.514;2024-03-02T14:54:49;1.52;;;0.73;;
82950;SDS011;72737;53.332;6.514;2024-03-02T14:57:14;1.73;;;0.80;;
82950;SDS011;72737;53.332;6.514;2024-03-02T14:59:39;1.77;;;0.80;;
82950;SDS011;72737;53.332;6.514;2024-03-02T15:02:05;2.90;;;0.90;;
82950;SDS011;72737;53.332;6.514;2024-03-02T15:04:33;2.25;;;0.88;;
82950;SDS011;72737;53.332;6.514;2024-03-02T15:06:58;2.78;;;0.82;;
82950;SDS011;72737;53.332;6.514;2024-03-02T15:09:24;2.22;;;0.90;;